Time;durP1;ratioP1;P1;durP2;ratioP2;P2;SDS_P1;SDS_P2;PMS_P1;PMS_P2;Temp;Humidity;BMP_temperature;BMP_pressure;BME280_temperature;BME280_humidity;BME280_pressure;Samples;Min_cycle;Max_cycle;Signal;HPM_P1;HPM_P2
2021/07/04 00:00:32;;;;;;;11.43;7.18;;;;;;;17.88;90.01;101201.84;5091662;28;20044;-58
2021/07/04 00:02:59;;;;;;;10.10;6.78;;;;;;;17.92;89.86;101205.09;5087669;28;20067;-59
2021/07/04 00:05:29;;;;;;;9.43;6.15;;;;;;;17.98;89.83;101193.88;5090380;28;20040;-57
2021/07/04 00:07:56;;;;;;;9.65;6.13;;;;;;;18.03;90.14;101193.47;5090743;28;20048;-59
2021/07/04 00:10:28;;;;;;;9.95;6.30;;;;;;;18.20;88.62;101190.13;5091533;28;20053;-59
2021/07/04 00:12:57;;;;;;;10.43;6.45;;;;;;;18.08;89.32;101200.06;5073427;28;20047;-58
2021/07/04 00:15:26;;;;;;;10.02;6.82;;;;;;;18.06;89.98;101193.19;5090190;28;20059;-57
2021/07/04 00:17:53;;;;;;;10.70;6.15;;;;;;;18.12;89.45;101191.78;5071049;28;20052;-59
2021/07/04 00:20:21;;;;;;;9.30;5.50;;;;;;;18.08;89.43;101192.06;5074514;28;20050;-59
2021/07/04 00:22:54;;;;;;;10.70;6.10;;;;;;;18.12;89.88;101195.31;5091188;28;20051;-59
2021/07/04 00:25:25;;;;;;;10.23;5.47;;;;;;;18.20;89.46;101191.91;5091738;28;20051;-59
2021/07/04 00:27:53;;;;;;;8.20;5.18;;;;;;;18.13;89.44;101194.31;5072894;28;20097;-54
2021/07/04 00:30:20;;;;;;;8.68;6.05;;;;;;;18.15;89.84;101195.00;5089881;28;20044;-58
2021/07/04 00:32:47;;;;;;;9.43;6.32;;;;;;;18.16;89.93;101196.69;5071863;28;20040;-59
2021/07/04 00:35:16;;;;;;;9.23;6.10;;;;;;;18.21;89.70;101201.59;5073531;28;20051;-57
2021/07/04 00:37:43;;;;;;;9.77;6.18;;;;;;;18.14;89.89;101190.66;5090945;28;20472;-58
2021/07/04 00:40:11;;;;;;;9.95;5.97;;;;;;;18.15;89.78;101188.88;5073505;28;20503;-57
2021/07/04 00:42:39;;;;;;;11.10;6.43;;;;;;;18.13;90.30;101186.31;5073288;28;20105;-58
2021/07/04 00:45:12;;;;;;;10.65;5.63;;;;;;;18.14;90.24;101187.19;5090778;28;20516;-58
2021/07/04 00:47:39;;;;;;;11.40;6.57;;;;;;;18.18;90.54;101181.41;5089426;28;20430;-58
2021/07/04 00:50:07;;;;;;;8.57;5.80;;;;;;;18.16;90.01;101177.22;5077055;28;20079;-58
2021/07/04 00:52:34;;;;;;;9.18;5.72;;;;;;;18.22;90.19;101177.50;5070683;28;20049;-58
2021/07/04 00:55:03;;;;;;;10.27;5.75;;;;;;;18.21;89.81;101183.78;5070390;28;20579;-58
2021/07/04 00:57:30;;;;;;;9.35;5.65;;;;;;;18.17;89.23;101182.38;5069439;28;20171;-58
2021/07/04 00:59:57;;;;;;;9.55;5.85;;;;;;;18.10;89.59;101181.28;5053092;28;20046;-59
2021/07/04 01:02:24;;;;;;;9.98;5.70;;;;;;;18.07;89.47;101179.75;5068370;28;20576;-58
2021/07/04 01:04:51;;;;;;;8.75;5.82;;;;;;;17.97;90.15;101189.56;5070858;28;20052;-59
2021/07/04 01:07:18;;;;;;;8.98;5.68;;;;;;;17.98;90.28;101175.25;5071048;28;20060;-59
2021/07/04 01:09:45;;;;;;;8.35;5.50;;;;;;;17.98;90.28;101175.25;5053062;28;20056;-58
2021/07/04 01:12:12;;;;;;;8.65;4.80;;;;;;;18.03;90.07;101177.53;5053128;28;20489;-54
2021/07/04 01:14:39;;;;;;;9.82;5.53;;;;;;;18.08;89.91;101172.63;5052128;28;20041;-52
2021/07/04 01:17:06;;;;;;;8.73;5.60;;;;;;;18.08;90.14;101173.44;5067036;28;20041;-53
2021/07/04 01:19:33;;;;;;;9.18;5.43;;;;;;;18.20;89.07;101163.50;5052284;28;20052;-56
2021/07/04 01:22:00;;;;;;;10.05;5.20;;;;;;;18.11;89.05;101164.34;5069404;28;20086;-56
2021/07/04 01:24:27;;;;;;;8.23;5.30;;;;;;;18.10;89.42;101161.81;5051951;28;20097;-52
2021/07/04 01:26:54;;;;;;;8.75;4.97;;;;;;;18.08;88.93;101160.13;5068290;28;20055;-54
2021/07/04 01:29:21;;;;;;;8.05;5.10;;;;;;;17.99;89.61;101160.16;5051909;28;20447;-55
2021/07/04 01:31:48;;;;;;;9.02;4.75;;;;;;;17.98;89.72;101155.81;5051027;28;20507;-55
2021/07/04 01:34:15;;;;;;;9.45;5.65;;;;;;;17.79;90.47;101148.63;5068757;28;20056;-55
2021/07/04 01:36:41;;;;;;;10.20;6.10;;;;;;;17.86;90.24;101144.41;5069989;28;20037;-53
2021/07/04 01:39:09;;;;;;;10.85;5.57;;;;;;;17.85;90.07;101143.59;5051008;28;20052;-54
2021/07/04 01:41:36;;;;;;;9.20;5.97;;;;;;;17.86;90.05;101139.09;5051509;28;20053;-54
2021/07/04 01:44:03;;;;;;;8.75;5.57;;;;;;;17.89;89.45;101136.19;5067860;28;20048;-54
2021/07/04 01:46:30;;;;;;;10.27;6.45;;;;;;;17.83;89.89;101142.06;5069048;28;20079;-52
2021/07/04 01:48:57;;;;;;;9.07;5.82;;;;;;;17.82;89.69;101138.56;5067196;28;20068;-53
2021/07/04 01:51:24;;;;;;;10.35;7.43;;;;;;;17.81;89.94;101136.06;5034502;28;20049;-53
2021/07/04 01:53:50;;;;;;;10.13;6.95;;;;;;;17.77;90.38;101134.66;5069118;28;20044;-55
2021/07/04 01:56:17;;;;;;;10.32;7.03;;;;;;;17.84;89.64;101125.13;5051606;28;20056;-54
2021/07/04 01:58:44;;;;;;;9.63;6.50;;;;;;;17.81;90.33;101131.56;5069089;28;20097;-54
2021/07/04 02:01:12;;;;;;;8.88;6.40;;;;;;;17.82;90.47;101127.06;5068927;28;20051;-52
2021/07/04 02:03:40;;;;;;;10.65;6.53;;;;;;;17.87;90.29;101128.34;5067426;28;20489;-54
2021/07/04 02:06:07;;;;;;;9.68;6.32;;;;;;;18.02;89.71;101114.63;5051050;28;20057;-54
2021/07/04 02:08:34;;;;;;;10.38;6.55;;;;;;;17.97;89.71;101115.06;5051737;28;20037;-55
2021/07/04 02:11:01;;;;;;;9.88;6.40;;;;;;;18.00;90.03;101112.13;5068764;28;20481;-55
2021/07/04 02:13:27;;;;;;;12.00;6.25;;;;;;;18.10;89.49;101113.94;5068957;28;20048;-55
2021/07/04 02:15:54;;;;;;;10.23;6.88;;;;;;;18.01;88.91;101112.94;5050437;28;20079;-55
2021/07/04 02:18:21;;;;;;;10.75;7.28;;;;;;;18.03;89.96;101106.50;5052042;28;20076;-56
2021/07/04 02:20:51;;;;;;;11.68;7.15;;;;;;;18.02;89.98;101110.13;5072455;28;20485;-55
2021/07/04 02:23:31;;;;;;;11.60;7.35;;;;;;;17.98;90.15;101110.56;5073285;28;20041;-53
2021/07/04 02:25:58;;;;;;;9.77;6.60;;;;;;;17.92;89.77;101111.97;5072385;28;20431;-55
2021/07/04 02:28:27;;;;;;;11.60;7.30;;;;;;;17.96;90.10;101112.56;5071501;28;20106;-54
2021/07/04 02:30:56;;;;;;;10.68;7.22;;;;;;;17.90;89.96;101114.75;5073512;28;20081;-59
2021/07/04 02:33:25;;;;;;;10.70;7.38;;;;;;;17.93;90.30;101107.50;5072808;28;20094;-59
2021/07/04 02:35:54;;;;;;;9.40;6.88;;;;;;;18.00;90.29;101113.94;5074075;28;20048;-59
2021/07/04 02:38:22;;;;;;;11.68;7.55;;;;;;;18.12;89.53;101111.94;5056079;28;20048;-59
2021/07/04 02:40:51;;;;;;;12.48;7.65;;;;;;;17.96;89.73;101112.56;5073656;28;20052;-60
2021/07/04 02:43:23;;;;;;;10.70;7.25;;;;;;;17.99;89.77;101110.44;5056236;28;20382;-60
2021/07/04 02:45:51;;;;;;;11.13;7.45;;;;;;;18.02;89.86;101111.97;5073587;28;20060;-61
2021/07/04 02:48:17;;;;;;;10.48;7.30;;;;;;;17.91;90.14;101112.94;5072370;28;20053;-60
2021/07/04 02:50:45;;;;;;;11.77;7.13;;;;;;;17.95;89.92;101108.19;5074476;28;20056;-60
2021/07/04 02:53:12;;;;;;;9.38;6.53;;;;;;;17.94;90.28;101110.00;5073534;28;20048;-60
2021/07/04 02:55:39;;;;;;;12.10;7.75;;;;;;;17.95;90.27;101106.38;5056212;28;20072;-59
2021/07/04 02:58:06;;;;;;;10.48;6.60;;;;;;;18.04;89.91;101102.03;5073044;28;20060;-60
2021/07/04 03:00:33;;;;;;;10.07;6.78;;;;;;;18.04;90.07;101113.50;5072160;28;20056;-56
2021/07/04 03:03:00;;;;;;;11.10;7.05;;;;;;;17.97;90.26;101107.09;5070019;28;20047;-55
2021/07/04 03:05:27;;;;;;;12.60;6.50;;;;;;;17.96;90.55;101123.19;5072342;28;20056;-55
2021/07/04 03:07:53;;;;;;;11.38;7.75;;;;;;;18.00;90.28;101117.44;5071600;28;20106;-60
2021/07/04 03:10:21;;;;;;;9.43;6.68;;;;;;;17.95;90.39;101119.66;5055621;28;20772;-60
2021/07/04 03:12:48;;;;;;;10.82;7.38;;;;;;;17.95;90.70;101118.84;5071793;28;20051;-60
2021/07/04 03:15:16;;;;;;;10.85;6.72;;;;;;;18.00;90.59;101122.75;5055447;28;20139;-61
2021/07/04 03:17:43;;;;;;;10.77;6.60;;;;;;;17.97;90.61;101115.06;5054037;28;20051;-55
2021/07/04 03:20:11;;;;;;;10.60;7.30;;;;;;;17.96;90.86;101110.72;5072696;28;20039;-55
2021/07/04 03:22:38;;;;;;;11.77;7.18;;;;;;;17.96;90.77;101113.38;5071700;28;20049;-55
2021/07/04 03:25:07;;;;;;;10.98;6.95;;;;;;;17.94;90.99;101112.66;5071679;28;20106;-60
2021/07/04 03:27:35;;;;;;;11.05;7.50;;;;;;;17.98;90.79;101113.22;5073074;28;20044;-60
2021/07/04 03:30:04;;;;;;;11.70;7.80;;;;;;;17.97;90.33;101119.53;5070835;28;20480;-61
2021/07/04 03:32:31;;;;;;;10.90;6.95;;;;;;;17.92;90.20;101119.13;5071080;28;20129;-60
2021/07/04 03:34:58;;;;;;;11.35;7.75;;;;;;;17.91;90.51;101112.94;5072481;28;20056;-56
2021/07/04 03:37:25;;;;;;;10.57;7.43;;;;;;;18.01;90.86;101115.59;5072108;28;20052;-60
2021/07/04 03:39:52;;;;;;;10.35;7.13;;;;;;;18.00;90.72;101120.09;5073067;28;20041;-61
2021/07/04 03:42:18;;;;;;;11.23;7.10;;;;;;;17.99;90.43;101112.25;5072730;28;20037;-60
2021/07/04 03:44:45;;;;;;;11.60;7.57;;;;;;;17.96;90.78;101121.38;5072570;28;20070;-56
2021/07/04 03:47:12;;;;;;;11.05;7.25;;;;;;;17.95;90.79;101122.34;5068854;28;20059;-56
2021/07/04 03:49:39;;;;;;;9.75;6.80;;;;;;;17.99;90.83;101117.59;5053367;28;20078;-56
2021/07/04 03:52:06;;;;;;;9.85;7.15;;;;;;;17.87;91.18;101124.81;5071152;28;20501;-55
2021/07/04 03:54:33;;;;;;;13.02;8.23;;;;;;;17.91;91.23;101118.25;5071561;28;20497;-56
2021/07/04 03:57:20;;;;;;;10.50;7.53;;;;;;;17.88;91.36;101129.19;5070581;28;20059;-55
2021/07/04 03:59:51;;;;;;;10.13;6.50;;;;;;;17.94;90.77;101135.78;5070842;28;20413;-56
2021/07/04 04:02:19;;;;;;;12.30;7.25;;;;;;;17.94;90.96;101131.28;5068952;28;20056;-54
2021/07/04 04:04:46;;;;;;;10.85;7.65;;;;;;;17.83;91.93;101123.44;5054057;28;20052;-53
2021/07/04 04:07:13;;;;;;;12.13;8.02;;;;;;;17.77;92.21;101121.34;5071198;28;20501;-60
2021/07/04 04:09:41;;;;;;;11.18;8.50;;;;;;;17.89;91.95;101125.53;5072453;28;20041;-60
2021/07/04 04:12:09;;;;;;;11.80;8.48;;;;;;;17.87;92.12;101124.81;5071484;28;20037;-59
2021/07/04 04:14:36;;;;;;;12.20;7.75;;;;;;;17.93;91.92;101132.28;5054660;28;20052;-59
2021/07/04 04:17:04;;;;;;;14.85;8.35;;;;;;;17.85;92.09;101124.16;5070433;28;20056;-60
2021/07/04 04:19:31;;;;;;;11.68;8.57;;;;;;;17.85;92.18;101134.78;5072173;28;20040;-59
2021/07/04 04:21:58;;;;;;;11.65;8.10;;;;;;;17.91;92.36;101118.25;5072200;28;20060;-59
2021/07/04 04:24:25;;;;;;;12.75;8.40;;;;;;;17.93;91.74;101123.44;5072343;28;20052;-59
2021/07/04 04:26:51;;;;;;;11.52;7.95;;;;;;;17.93;91.63;101126.13;5072136;28;20052;-60
2021/07/04 04:29:18;;;;;;;11.43;8.15;;;;;;;18.00;91.70;101112.13;5071938;28;20079;-60
2021/07/04 04:31:46;;;;;;;11.60;7.97;;;;;;;18.03;91.39;101111.00;5072229;28;20053;-60
2021/07/04 04:34:14;;;;;;;12.60;8.40;;;;;;;18.02;91.66;101112.78;5070005;28;20048;-60
2021/07/04 04:36:41;;;;;;;12.10;8.30;;;;;;;18.01;92.28;101105.81;5071822;28;20044;-59
2021/07/04 04:39:08;;;;;;;12.30;8.45;;;;;;;18.00;92.13;101109.44;5071597;28;20060;-60
2021/07/04 04:41:36;;;;;;;12.55;9.13;;;;;;;18.00;91.89;101111.28;5069816;28;20055;-60
2021/07/04 04:44:04;;;;;;;11.00;8.48;;;;;;;18.02;91.84;101106.66;5053972;28;20040;-60
2021/07/04 04:46:31;;;;;;;13.85;9.23;;;;;;;18.04;92.06;101105.53;5071495;28;20481;-59
2021/07/04 04:48:58;;;;;;;12.40;8.70;;;;;;;18.12;91.59;101102.16;5070898;28;20400;-59
2021/07/04 04:51:26;;;;;;;13.25;9.23;;;;;;;18.13;91.51;101103.81;5071352;28;20394;-60
2021/07/04 04:53:52;;;;;;;13.75;9.23;;;;;;;18.13;91.18;101103.00;5070351;28;20110;-60
2021/07/04 04:56:19;;;;;;;14.85;9.35;;;;;;;18.03;91.78;101103.00;5053790;28;20059;-60
2021/07/04 04:58:46;;;;;;;13.23;9.65;;;;;;;18.00;92.01;101098.81;5071665;28;20082;-60
2021/07/04 05:01:13;;;;;;;14.07;10.18;;;;;;;18.03;91.89;101097.69;5071012;28;20386;-60
2021/07/04 05:03:40;;;;;;;15.73;10.15;;;;;;;17.94;92.77;101098.53;5052478;28;20504;-59
2021/07/04 05:06:06;;;;;;;12.20;9.27;;;;;;;17.96;92.83;101091.28;5070263;28;20055;-61
2021/07/04 05:08:36;;;;;;;12.88;9.57;;;;;;;18.05;92.70;101088.59;5070651;28;20054;-55
2021/07/04 05:11:03;;;;;;;13.85;9.52;;;;;;;18.13;92.47;101084.34;5051664;28;20058;-55
2021/07/04 05:13:29;;;;;;;12.93;9.55;;;;;;;18.17;91.73;101086.56;5069638;28;20040;-55
2021/07/04 05:15:56;;;;;;;12.15;9.05;;;;;;;18.20;91.85;101082.78;5070661;28;20048;-59
2021/07/04 05:18:23;;;;;;;12.93;9.70;;;;;;;18.18;91.28;101085.59;5070675;28;20504;-59
2021/07/04 05:20:50;;;;;;;14.00;10.25;;;;;;;18.24;91.06;101089.50;5071075;28;20052;-59
2021/07/04 05:23:17;;;;;;;13.07;9.57;;;;;;;18.21;91.25;101087.97;5071494;28;20113;-60
2021/07/04 05:25:43;;;;;;;13.30;9.77;;;;;;;18.31;90.82;101087.97;5070978;28;20049;-60
2021/07/04 05:28:10;;;;;;;13.32;9.55;;;;;;;18.32;90.72;101081.63;5070870;28;20992;-60
2021/07/04 05:30:37;;;;;;;12.60;9.75;;;;;;;18.30;90.69;101088.94;5071570;28;20048;-61
2021/07/04 05:33:04;;;;;;;14.40;10.77;;;;;;;18.34;90.70;101090.31;5052170;28;20040;-60
2021/07/04 05:35:31;;;;;;;14.23;10.27;;;;;;;18.29;90.87;101076.59;5071404;28;20098;-60
2021/07/04 05:37:58;;;;;;;13.52;10.90;;;;;;;18.37;90.59;101075.88;5070699;28;20064;-59
2021/07/04 05:40:24;;;;;;;14.73;9.85;;;;;;;18.38;90.45;101072.25;5053358;28;20083;-60
2021/07/04 05:42:53;;;;;;;15.75;11.00;;;;;;;18.40;90.66;101078.25;5069835;28;20051;-56
2021/07/04 05:45:23;;;;;;;17.38;12.18;;;;;;;18.37;90.32;101078.56;5069873;28;20048;-55
2021/07/04 05:47:51;;;;;;;15.20;11.18;;;;;;;18.55;90.53;101081.28;5067299;28;20515;-55
2021/07/04 05:50:19;;;;;;;16.48;11.82;;;;;;;18.57;91.02;101074.00;5051598;28;20056;-55
2021/07/04 05:52:46;;;;;;;16.67;12.05;;;;;;;18.64;90.47;101079.56;5069185;28;20059;-55
2021/07/04 05:55:13;;;;;;;16.40;12.25;;;;;;;18.68;90.76;101073.81;5070977;28;20048;-60
2021/07/04 05:57:40;;;;;;;15.73;11.88;;;;;;;18.70;89.83;101074.47;5071178;28;20590;-60
2021/07/04 06:00:09;;;;;;;18.75;12.30;;;;;;;18.77;90.38;101072.06;5071416;28;20072;-60
2021/07/04 06:02:35;;;;;;;15.90;12.25;;;;;;;18.82;89.18;101077.78;5070088;28;20508;-55
2021/07/04 06:05:03;;;;;;;16.55;12.40;;;;;;;18.88;88.60;101077.25;5069359;28;20064;-56
2021/07/04 06:07:30;;;;;;;17.25;12.13;;;;;;;18.86;88.90;101078.34;5069130;28;20060;-54
2021/07/04 06:09:57;;;;;;;17.00;12.93;;;;;;;18.92;89.21;101083.09;5069268;28;20044;-56
2021/07/04 06:12:24;;;;;;;20.17;13.40;;;;;;;18.97;88.29;101072.00;5069303;28;20106;-61
2021/07/04 06:14:50;;;;;;;18.10;13.32;;;;;;;19.00;87.66;101080.53;5070305;28;20563;-56
2021/07/04 06:17:17;;;;;;;19.02;14.55;;;;;;;19.00;87.70;101079.69;5035631;28;20135;-61
2021/07/04 06:19:44;;;;;;;19.60;12.95;;;;;;;19.11;87.58;101068.81;5070474;28;20173;-56
2021/07/04 06:22:11;;;;;;;18.13;14.20;;;;;;;19.17;86.91;101070.88;5070276;28;20464;-61
2021/07/04 06:24:38;;;;;;;17.85;13.95;;;;;;;19.26;86.12;101069.13;5035601;28;20479;-56
2021/07/04 06:27:05;;;;;;;19.13;13.50;;;;;;;19.26;87.02;101069.13;5068513;28;20041;-56
2021/07/04 06:29:32;;;;;;;18.30;14.25;;;;;;;19.28;87.86;101067.16;5068873;28;20049;-56
2021/07/04 06:31:58;;;;;;;19.30;13.52;;;;;;;19.32;87.47;101057.03;5069094;28;20052;-62
2021/07/04 06:34:26;;;;;;;20.10;14.40;;;;;;;19.36;88.07;101059.25;5071323;28;20037;-62
2021/07/04 06:36:53;;;;;;;17.63;13.93;;;;;;;19.39;86.93;101058.94;5071116;28;20708;-62
2021/07/04 06:39:19;;;;;;;19.02;14.82;;;;;;;19.51;86.19;101056.88;5053763;28;20059;-61
2021/07/04 06:41:46;;;;;;;21.38;14.82;;;;;;;19.64;84.74;101053.81;5071238;28;20052;-61
2021/07/04 06:44:13;;;;;;;19.05;13.55;;;;;;;19.80;81.80;101065.63;5071215;28;20048;-61
2021/07/04 06:46:39;;;;;;;18.88;14.05;;;;;;;19.89;82.73;101057.53;5071261;28;20052;-61
2021/07/04 06:49:07;;;;;;;17.48;14.13;;;;;;;20.02;83.20;101058.97;5070723;28;20044;-63
2021/07/04 06:51:33;;;;;;;17.05;12.60;;;;;;;20.04;82.28;101060.50;5069917;28;20106;-63
2021/07/04 06:54:00;;;;;;;18.25;13.73;;;;;;;20.07;82.63;101049.47;5069930;28;20048;-63
2021/07/04 06:56:27;;;;;;;19.92;14.98;;;;;;;20.05;80.99;101047.97;5069342;28;20066;-63
2021/07/04 06:58:54;;;;;;;21.05;15.77;;;;;;;20.20;81.12;101045.56;5069538;28;20040;-63
2021/07/04 07:01:21;;;;;;;23.55;15.07;;;;;;;20.29;82.11;101047.28;5069552;28;20043;-62
2021/07/04 07:03:48;;;;;;;21.58;15.80;;;;;;;20.47;80.65;101049.88;5070876;28;20063;-63
2021/07/04 07:06:14;;;;;;;21.60;15.45;;;;;;;20.51;81.66;101045.88;5073921;28;20055;-62
2021/07/04 07:08:42;;;;;;;25.27;16.10;;;;;;;20.57;81.73;101047.91;5073669;28;20446;-63
2021/07/04 07:11:09;;;;;;;23.95;16.20;;;;;;;20.57;78.69;101055.06;5073840;28;20500;-63
2021/07/04 07:13:36;;;;;;;21.58;15.20;;;;;;;20.60;78.93;101058.28;5073583;28;20045;-63
2021/07/04 07:16:03;;;;;;;23.48;16.35;;;;;;;20.73;80.14;101052.50;5072940;28;20056;-63
2021/07/04 07:18:30;;;;;;;21.42;15.52;;;;;;;20.73;79.28;101049.81;5054462;28;20508;-63
2021/07/04 07:20:57;;;;;;;24.80;16.83;;;;;;;20.71;78.20;101054.50;5073296;28;20045;-63
2021/07/04 07:23:24;;;;;;;25.60;16.17;;;;;;;20.73;77.54;101051.66;5055533;28;20558;-63
2021/07/04 07:25:51;;;;;;;24.90;17.02;;;;;;;20.73;77.46;101059.69;5072977;28;20102;-63
2021/07/04 07:28:18;;;;;;;25.30;16.83;;;;;;;20.82;77.20;101050.72;5072163;28;20056;-64
2021/07/04 07:30:45;;;;;;;22.92;16.35;;;;;;;20.81;76.70;101051.69;5055079;28;20044;-56
2021/07/04 07:33:12;;;;;;;24.63;17.05;;;;;;;20.92;76.29;101051.38;5070134;28;20110;-63
2021/07/04 07:35:39;;;;;;;24.13;16.23;;;;;;;21.16;76.98;101051.59;5055105;28;20451;-63
2021/07/04 07:38:06;;;;;;;25.50;16.50;;;;;;;21.17;75.45;101047.94;5071588;28;20041;-63
2021/07/04 07:40:35;;;;;;;23.58;16.92;;;;;;;21.11;74.64;101044.91;5072967;28;20045;-63
2021/07/04 07:43:04;;;;;;;23.80;17.15;;;;;;;21.00;74.74;101047.09;5054914;28;20497;-62
2021/07/04 07:45:31;;;;;;;26.13;19.17;;;;;;;21.02;74.45;101039.72;5054941;28;20041;-64
2021/07/04 07:47:58;;;;;;;26.92;19.38;;;;;;;21.17;74.91;101035.38;5069790;28;20117;-57
2021/07/04 07:50:32;;;;;;;28.80;19.35;;;;;;;20.93;75.04;101036.22;5071965;28;20057;-56
2021/07/04 07:52:59;;;;;;;27.02;19.13;;;;;;;21.01;74.39;101046.06;5071253;28;20036;-56
2021/07/04 07:55:26;;;;;;;24.98;18.60;;;;;;;21.11;74.73;101036.88;5054036;28;20427;-57
2021/07/04 07:57:53;;;;;;;25.80;19.67;;;;;;;21.02;74.49;101039.72;5071496;28;20056;-57
2021/07/04 08:00:20;;;;;;;28.88;20.52;;;;;;;21.16;74.75;101036.41;5072328;28;20106;-62
2021/07/04 08:02:47;;;;;;;26.27;18.33;;;;;;;21.27;74.98;101033.41;5070129;28;20558;-62
2021/07/04 08:05:14;;;;;;;27.55;20.05;;;;;;;21.35;74.06;101040.63;5071859;28;20072;-57
2021/07/04 08:07:41;;;;;;;27.73;20.38;;;;;;;21.47;73.69;101038.44;5071150;28;20065;-56
2021/07/04 08:10:09;;;;;;;27.65;20.10;;;;;;;21.54;72.21;101034.13;5071182;28;20136;-56
2021/07/04 08:12:36;;;;;;;26.85;19.38;;;;;;;21.63;73.46;101034.94;5052818;28;20440;-57
2021/07/04 08:15:04;;;;;;;28.10;20.38;;;;;;;21.72;72.36;101025.91;5070143;28;20044;-57
2021/07/04 08:17:31;;;;;;;27.38;20.48;;;;;;;21.54;71.79;101022.56;5067449;28;20125;-58
2021/07/04 08:19:58;;;;;;;27.02;20.35;;;;;;;21.54;70.15;101031.47;5053331;28;20452;-57
2021/07/04 08:22:24;;;;;;;27.35;20.40;;;;;;;21.54;71.76;101026.09;5070726;28;20051;-57
2021/07/04 08:24:53;;;;;;;26.83;18.70;;;;;;;21.50;72.11;101031.91;5068616;28;20136;-57
2021/07/04 08:27:20;;;;;;;27.13;19.77;;;;;;;21.74;71.30;101023.06;5052310;28;20052;-57
2021/07/04 08:29:47;;;;;;;26.60;18.80;;;;;;;22.04;71.88;101018.00;5052096;28;20113;-56
2021/07/04 08:32:13;;;;;;;25.27;18.95;;;;;;;22.27;71.08;101016.25;5067581;28;20052;-57
2021/07/04 08:34:40;;;;;;;26.45;18.30;;;;;;;22.35;70.35;101019.94;5069563;28;20509;-57
2021/07/04 08:37:07;;;;;;;25.50;18.95;;;;;;;22.48;69.68;101014.84;5051371;28;20166;-58
2021/07/04 08:39:34;;;;;;;25.63;17.60;;;;;;;22.52;70.29;101012.66;5051238;28;20048;-57
2021/07/04 08:42:01;;;;;;;23.58;17.17;;;;;;;22.58;69.60;101011.97;5067567;28;20543;-57
2021/07/04 08:44:28;;;;;;;26.75;18.95;;;;;;;22.52;68.19;101007.31;5069652;28;20047;-57
2021/07/04 08:46:59;;;;;;;22.90;17.98;;;;;;;22.57;67.78;101013.00;5051177;28;20435;-63
2021/07/04 08:49:26;;;;;;;24.42;18.63;;;;;;;22.70;67.50;101009.72;5070155;28;20045;-58
2021/07/04 08:51:53;;;;;;;23.25;18.08;;;;;;;22.91;69.32;101006.44;5068931;28;20056;-57
2021/07/04 08:54:20;;;;;;;26.80;18.80;;;;;;;22.87;68.20;101005.94;5068553;28;20037;-58
2021/07/04 08:56:49;;;;;;;24.08;17.55;;;;;;;22.82;66.88;101007.50;5067543;28;20122;-57
2021/07/04 08:59:16;;;;;;;23.05;16.70;;;;;;;22.99;68.19;101008.22;5069279;28;20041;-57
2021/07/04 09:01:50;;;;;;;22.60;17.08;;;;;;;23.42;66.03;101005.91;5051552;28;20521;-63
2021/07/04 09:04:19;;;;;;;22.95;16.75;;;;;;;23.51;65.00;101004.00;5068325;28;20114;-64
2021/07/04 09:06:52;;;;;;;22.65;16.50;;;;;;;23.53;63.70;101010.88;5051483;28;20060;-63
2021/07/04 09:09:26;;;;;;;24.95;17.27;;;;;;;23.86;64.09;101012.38;5069592;28;20126;-58
2021/07/04 09:12:10;;;;;;;22.10;16.85;;;;;;;23.86;63.78;101013.22;5068587;28;20554;-58
2021/07/04 09:14:45;;;;;;;22.35;16.38;;;;;;;24.00;63.56;100997.34;5051793;28;20055;-57
2021/07/04 09:17:35;;;;;;;20.25;15.63;;;;;;;23.97;61.72;101003.91;5051290;28;20412;-57
2021/07/04 09:20:11;;;;;;;20.80;15.75;;;;;;;23.88;62.03;101000.47;5051541;28;20483;-58
2021/07/04 09:22:40;;;;;;;23.40;17.38;;;;;;;23.92;61.12;101000.94;5068876;28;20048;-59
2021/07/04 09:25:13;;;;;;;22.17;16.10;;;;;;;24.11;62.39;100994.19;5051047;28;20045;-64
2021/07/04 09:27:43;;;;;;;20.35;15.38;;;;;;;24.28;61.94;100989.44;5067714;28;20151;-64
2021/07/04 09:30:13;;;;;;;20.77;16.25;;;;;;;24.46;61.08;100991.75;5069135;28;20062;-64
2021/07/04 09:32:46;;;;;;;20.30;15.63;;;;;;;24.60;60.72;100992.75;5065297;28;20209;-64
2021/07/04 09:35:17;;;;;;;21.25;16.05;;;;;;;24.53;59.17;100979.22;5069148;28;20048;-64
2021/07/04 09:37:48;;;;;;;21.00;15.30;;;;;;;24.43;59.11;100971.47;5068385;28;20044;-64
2021/07/04 09:40:21;;;;;;;20.85;14.82;;;;;;;24.43;58.45;100974.16;5051371;28;20509;-64
2021/07/04 09:42:58;;;;;;;23.83;16.10;;;;;;;24.57;59.31;100983.19;5067902;28;20044;-64
2021/07/04 09:45:28;;;;;;;20.35;15.63;;;;;;;24.67;58.93;100982.91;5068984;28;20102;-64
2021/07/04 09:47:57;;;;;;;19.42;14.73;;;;;;;24.41;58.29;100978.84;5065195;28;20103;-64
2021/07/04 09:50:25;;;;;;;22.08;16.05;;;;;;;24.39;57.44;100969.31;5068592;28;20477;-64
2021/07/04 09:53:00;;;;;;;18.70;14.35;;;;;;;24.66;57.72;100977.72;5068404;28;20052;-64
2021/07/04 09:55:29;;;;;;;19.80;14.93;;;;;;;24.69;57.27;100970.13;5068807;28;20041;-64
2021/07/04 09:57:59;;;;;;;20.00;15.27;;;;;;;24.72;58.30;100968.88;5068137;28;20057;-64
2021/07/04 10:00:31;;;;;;;19.20;13.65;;;;;;;25.11;57.86;100963.09;5050597;28;20110;-64
2021/07/04 10:03:12;;;;;;;18.13;12.40;;;;;;;25.37;53.69;100953.59;5066209;28;20048;-63
2021/07/04 10:06:04;;;;;;;17.63;12.52;;;;;;;25.56;52.83;100957.44;5069157;28;20043;-61
2021/07/04 10:08:33;;;;;;;17.00;12.07;;;;;;;25.69;54.52;100945.97;5068621;28;20044;-61
2021/07/04 10:11:02;;;;;;;14.07;10.82;;;;;;;25.65;53.71;100948.19;5066669;28;20052;-62
2021/07/04 10:13:30;;;;;;;16.25;12.43;;;;;;;25.63;53.12;100944.03;5068650;28;20653;-62
2021/07/04 10:15:58;;;;;;;17.88;12.40;;;;;;;25.74;53.18;100934.56;5068585;28;20418;-62
2021/07/04 10:18:25;;;;;;;15.32;11.75;;;;;;;26.03;52.66;100938.06;5048549;28;20114;-62
2021/07/04 10:20:53;;;;;;;16.02;11.73;;;;;;;25.91;50.37;100940.50;5068458;28;20080;-62
2021/07/04 10:23:22;;;;;;;15.20;12.15;;;;;;;25.76;51.86;100933.34;5068629;28;20056;-62
2021/07/04 10:25:51;;;;;;;16.52;12.75;;;;;;;25.65;53.34;100942.00;5051188;28;20049;-62
2021/07/04 10:28:39;;;;;;;14.73;11.93;;;;;;;25.95;54.11;100930.97;5068060;28;20060;-63
2021/07/04 10:31:12;;;;;;;15.38;10.90;;;;;;;26.12;52.44;100928.78;5050722;28;20052;-63
2021/07/04 10:33:39;;;;;;;13.63;10.40;;;;;;;26.23;50.96;100922.00;5067080;28;20056;-62
2021/07/04 10:36:21;;;;;;;13.75;10.65;;;;;;;25.91;52.73;100916.25;5068936;28;20420;-62
2021/07/04 10:38:55;;;;;;;14.55;10.95;;;;;;;25.84;49.03;100915.34;5052532;28;20071;-58
2021/07/04 10:41:31;;;;;;;13.55;10.18;;;;;;;25.85;51.82;100904.41;5072163;28;20049;-62
2021/07/04 10:44:00;;;;;;;13.52;10.38;;;;;;;25.96;51.58;100906.53;5054063;28;20098;-59
2021/07/04 10:46:43;;;;;;;12.77;9.57;;;;;;;26.27;51.87;100897.16;5071696;28;20067;-59
2021/07/04 10:49:13;;;;;;;15.63;10.68;;;;;;;26.50;51.79;100890.56;5052387;28;20060;-59
2021/07/04 10:52:01;;;;;;;13.75;10.48;;;;;;;26.45;52.40;100890.31;5071655;28;20064;-59
2021/07/04 10:54:46;;;;;;;15.52;11.13;;;;;;;26.54;51.40;100889.09;5054455;28;20049;-59
2021/07/04 10:57:19;;;;;;;13.93;10.70;;;;;;;26.17;51.67;100883.22;5071484;28;20404;-59
2021/07/04 11:00:04;;;;;;;13.70;9.38;;;;;;;26.24;50.42;100880.53;5071908;28;20083;-59
2021/07/04 11:02:37;;;;;;;11.80;7.78;;;;;;;26.52;46.98;100876.88;5069631;28;20509;-58
2021/07/04 11:05:07;;;;;;;9.82;7.13;;;;;;;26.66;47.39;100867.78;5070934;28;20045;-59
2021/07/04 11:07:52;;;;;;;12.70;8.05;;;;;;;26.80;48.21;100864.06;5071318;28;20044;-59
2021/07/04 11:10:22;;;;;;;10.88;8.65;;;;;;;26.68;47.62;100854.91;5071429;28;20044;-59
2021/07/04 11:12:50;;;;;;;10.27;7.72;;;;;;;26.66;47.92;100841.63;5053254;28;20048;-59
2021/07/04 11:15:20;;;;;;;10.95;8.23;;;;;;;26.73;47.20;100846.22;5054317;28;20040;-58
2021/07/04 11:18:02;;;;;;;9.30;6.32;;;;;;;27.22;46.81;100836.03;5068741;28;20055;-58
2021/07/04 11:20:40;;;;;;;10.13;6.50;;;;;;;27.39;46.12;100839.13;5071429;28;20131;-58